TimeCDT,TemperatureF,Dew PointF,Humidity,Sea Level PressureIn,VisibilityMPH,Wind Direction,Wind SpeedMPH,Gust SpeedMPH,PrecipitationIn,Events,Conditions,WindDirDegrees,DateUTC
12:56 AM,41.9,37.9,86,30.15,10.0,Calm,Calm,-,N/A,,Clear,0,2012-10-09 05:56:00
1:56 AM,41.0,37.9,89,30.15,10.0,Calm,Calm,-,N/A,,Clear,0,2012-10-09 06:56:00
2:56 AM,39.9,36.9,89,30.14,10.0,SE,5.8,-,N/A,,Clear,140,2012-10-09 07:56:00
3:56 AM,39.9,36.9,89,30.14,10.0,Calm,Calm,-,N/A,,Clear,0,2012-10-09 08:56:00
4:56 AM,38.8,36.0,89,30.14,10.0,Calm,Calm,-,N/A,,Clear,0,2012-10-09 09:56:00
5:56 AM,38.8,36.0,89,30.15,10.0,Calm,Calm,-,N/A,,Clear,0,2012-10-09 10:56:00
6:56 AM,38.8,36.0,89,30.16,10.0,Calm,Calm,-,N/A,,Clear,0,2012-10-09 11:56:00
7:56 AM,41.9,38.8,89,30.16,10.0,SSE,6.9,-,N/A,,Clear,160,2012-10-09 12:56:00
8:56 AM,47.8,41.9,80,30.17,10.0,South,6.9,-,N/A,,Clear,170,2012-10-09 13:56:00
9:56 AM,54.9,43.0,64,30.17,10.0,SSW,5.8,-,N/A,,Clear,200,2012-10-09 14:56:00
10:56 AM,61.0,39.9,46,30.16,10.0,SSW,6.9,-,N/A,,Clear,200,2012-10-09 15:56:00
11:56 AM,63.0,39.9,43,30.13,10.0,SSW,9.2,16.1,N/A,,Clear,200,2012-10-09 16:56:00
12:56 PM,64.9,39.9,40,30.08,10.0,SW,11.5,-,N/A,,Clear,220,2012-10-09 17:56:00
1:56 PM,65.8,38.8,37,30.05,10.0,South,10.4,18.4,N/A,,Clear,190,2012-10-09 18:56:00
2:56 PM,65.8,41.0,40,30.03,10.0,SSW,10.4,17.3,N/A,,Clear,200,2012-10-09 19:56:00
3:56 PM,65.8,41.0,40,30.02,10.0,SW,11.5,-,0.00,,Clear,220,2012-10-09 20:56:00
4:56 PM,64.9,41.9,43,30.00,10.0,SSW,11.5,-,N/A,,Clear,200,2012-10-09 21:56:00
5:56 PM,61.9,43.9,52,30.00,10.0,SSW,8.1,-,N/A,,Clear,200,2012-10-09 22:56:00
6:56 PM,55.9,43.0,62,30.00,10.0,South,5.8,-,N/A,,Clear,180,2012-10-09 23:56:00
7:56 PM,52.9,43.0,69,30.00,10.0,South,4.6,-,0.00,,Clear,190,2012-10-10 00:56:00
8:56 PM,50.9,43.0,74,30.00,10.0,Calm,Calm,-,N/A,,Clear,0,2012-10-10 01:56:00
9:56 PM,50.9,43.0,74,30.01,10.0,Calm,Calm,-,N/A,,Clear,0,2012-10-10 02:56:00
10:56 PM,48.9,43.9,83,30.01,10.0,South,3.5,-,N/A,,Clear,180,2012-10-10 03:56:00
11:56 PM,46.9,43.0,86,30.00,10.0,Calm,Calm,-,N/A,,Clear,0,2012-10-10 04:56:00